Flemingville, New York
Current Conditions -  °F | °C
As of 8:53 AM on Friday 31 Oct 2014 (Local Time) from KBGM Reporting Station
Clear Clear  
Wind Chill: 26°   Ceiling: Unl
Heat Index: 31°   Visibility: 8mi
Dew Point: 29°   Wind: 5mph
Humidity: 92%   Direction: 120°ESE
Pressure: 29.99"   Gusts: NA
Location:  42.1349°N, 76.2495°W
Report Text: KBGM 311253Z 12004KT 8SM CLR M01/M02 A2999 RMK AO2 SLP169 T10061017
Loading
Personal Weather Stations






























Interactive Weather Map
Tropical Storm Tracking
New forecast layout! Learn more

10-Day Weather Forecast

Advertisements
Track Severe Weather on mobile